Time;durP1;ratioP1;P1;durP2;ratioP2;P2;SDS_P1;SDS_P2;PMS_P1;PMS_P2;Temp;Humidity;BMP_temperature;BMP_pressure;BME280_temperature;BME280_humidity;BME280_pressure;Samples;Min_cycle;Max_cycle;Signal;HPM_P1;HPM_P2
2023/01/08 00:00:29;;;;;;;12.73;6.95;;;;;;;1.37;70.99;99954.59;4883143;29;20112;-93
2023/01/08 00:02:54;;;;;;;20.10;8.93;;;;;;;1.37;71.61;99962.56;4867071;29;20028;-93
2023/01/08 00:05:20;;;;;;;17.42;8.18;;;;;;;1.51;71.22;99977.56;4867893;29;20415;-93
2023/01/08 00:07:45;;;;;;;12.48;7.00;;;;;;;1.46;71.30;99982.63;4882356;29;20029;-92
2023/01/08 00:10:11;;;;;;;13.35;7.78;;;;;;;1.30;70.92;99957.22;4883127;29;20033;-93
2023/01/08 00:12:36;;;;;;;13.98;7.93;;;;;;;1.17;71.10;99959.78;4886644;29;20028;-92
2023/01/08 00:15:02;;;;;;;13.73;7.53;;;;;;;1.48;70.81;100001.84;4882956;29;20033;-93
2023/01/08 00:17:27;;;;;;;17.73;8.55;;;;;;;1.22;71.59;99965.31;4897433;29;20175;-92
2023/01/08 00:19:53;;;;;;;14.38;7.63;;;;;;;1.30;71.80;99975.78;4882673;29;20043;-92
2023/01/08 00:22:18;;;;;;;14.00;8.02;;;;;;;1.35;70.83;99991.13;4869469;29;20572;-94
2023/01/08 00:24:44;;;;;;;17.38;9.10;;;;;;;1.21;71.37;99971.66;4864225;29;20101;-93
2023/01/08 00:27:10;;;;;;;13.27;7.95;;;;;;;1.35;71.50;99991.13;4848301;29;20096;-92
2023/01/08 00:29:36;;;;;;;17.15;8.48;;;;;;;1.23;71.64;99977.56;4887618;29;20040;-92
2023/01/08 00:32:02;;;;;;;15.18;8.32;;;;;;;1.11;71.35;99964.00;4875423;29;20116;-93
2023/01/08 00:34:28;;;;;;;13.85;7.32;;;;;;;1.16;72.10;99974.03;4877167;29;20491;-93
2023/01/08 00:36:53;;;;;;;18.52;8.52;;;;;;;1.02;71.96;99967.81;4881425;29;20043;-92
2023/01/08 00:39:19;;;;;;;15.55;8.40;;;;;;;0.97;72.01;99962.25;4870790;29;20496;-93
2023/01/08 00:41:45;;;;;;;16.00;8.82;;;;;;;1.07;71.61;99980.50;4870651;29;20036;-93
2023/01/08 00:44:13;;;;;;;21.13;8.68;;;;;;;0.97;72.59;99965.72;4870070;29;20512;-93
2023/01/08 00:46:39;;;;;;;14.80;8.85;;;;;;;0.92;72.08;99973.44;4904699;29;20032;-93
2023/01/08 00:49:04;;;;;;;20.55;9.30;;;;;;;0.91;72.48;99966.47;4875078;29;20510;-92
2023/01/08 00:51:30;;;;;;;17.83;9.25;;;;;;;1.11;71.95;99984.41;4875289;29;20068;-93
2023/01/08 00:53:55;;;;;;;17.67;8.27;;;;;;;0.99;71.92;99953.09;4869145;29;20025;-93
2023/01/08 00:56:21;;;;;;;18.67;9.18;;;;;;;1.22;71.90;99970.63;4869414;29;20029;-92
2023/01/08 00:58:46;;;;;;;16.50;8.85;;;;;;;1.24;72.57;99981.03;4885041;29;20031;-92
2023/01/08 01:01:12;;;;;;;14.10;8.00;;;;;;;1.25;72.12;99969.44;4873042;29;20036;-93
2023/01/08 01:03:38;;;;;;;18.17;9.45;;;;;;;1.40;72.09;99984.22;4869906;29;20036;-93
2023/01/08 01:06:04;;;;;;;15.07;8.18;;;;;;;1.35;71.68;99954.81;4870061;29;20116;-93
2023/01/08 01:08:29;;;;;;;17.50;8.43;;;;;;;1.27;71.43;99951.50;4876110;29;20040;-92
2023/01/08 01:10:55;;;;;;;20.35;8.50;;;;;;;1.45;71.12;99980.16;4880962;29;20032;-93
2023/01/08 01:13:21;;;;;;;15.82;7.60;;;;;;;1.33;71.10;99977.22;4887071;29;20043;-93
2023/01/08 01:15:58;;;;;;;16.48;8.68;;;;;;;1.26;71.48;99969.22;4874904;29;20104;-92
2023/01/08 01:18:24;;;;;;;17.17;8.15;;;;;;;0.97;71.39;99936.56;4864655;29;20097;-92
2023/01/08 01:20:50;;;;;;;20.65;9.00;;;;;;;0.91;71.61;99947.13;4869317;29;20032;-93
2023/01/08 01:23:15;;;;;;;14.30;8.70;;;;;;;0.89;71.27;99942.00;4869292;29;20025;-93
2023/01/08 01:25:41;;;;;;;14.63;7.32;;;;;;;0.93;71.77;99956.50;4874853;29;20028;-93
2023/01/08 01:28:06;;;;;;;14.50;8.40;;;;;;;0.96;71.79;99957.97;4869636;29;20032;-93
2023/01/08 01:30:32;;;;;;;16.88;9.38;;;;;;;0.88;72.15;99958.94;4870125;29;20093;-93
2023/01/08 01:32:57;;;;;;;14.90;7.95;;;;;;;0.75;72.25;99945.56;4873365;29;20040;-93
2023/01/08 01:35:23;;;;;;;13.73;7.53;;;;;;;0.77;72.13;99940.91;4881438;29;20025;-93
2023/01/08 01:37:48;;;;;;;15.40;9.35;;;;;;;0.81;72.29;99952.75;4891881;29;20036;-93
2023/01/08 01:40:14;;;;;;;14.38;8.95;;;;;;;0.77;72.54;99943.56;4870451;29;20060;-93
2023/01/08 01:42:39;;;;;;;16.30;8.07;;;;;;;0.78;71.55;99929.28;4868745;29;20055;-93
2023/01/08 01:45:29;;;;;;;14.77;7.40;;;;;;;0.74;72.55;99941.25;4868864;29;20037;-93
2023/01/08 01:47:56;;;;;;;19.73;8.00;;;;;;;0.78;72.75;99953.13;4881962;29;20036;-92
2023/01/08 01:50:50;;;;;;;12.65;7.53;;;;;;;0.92;72.32;99959.38;4884600;29;20567;-93
2023/01/08 01:53:27;;;;;;;16.48;9.25;;;;;;;0.85;71.97;99929.31;4884750;29;20024;-93
2023/01/08 01:55:56;;;;;;;16.38;8.43;;;;;;;0.73;72.36;99934.34;4868854;29;20029;-93
2023/01/08 01:58:25;;;;;;;18.25;8.82;;;;;;;0.76;72.37;99944.53;4869040;29;20538;-92
2023/01/08 02:00:51;;;;;;;13.35;8.25;;;;;;;0.69;72.08;99938.38;4884761;29;20056;-93
2023/01/08 02:03:19;;;;;;;17.85;8.15;;;;;;;0.68;72.35;99936.72;4869226;29;20040;-93
2023/01/08 02:06:03;;;;;;;14.30;7.78;;;;;;;0.75;72.11;99954.34;4868747;29;20136;-92
2023/01/08 02:08:46;;;;;;;15.32;8.00;;;;;;;0.55;71.88;99925.00;4914699;29;20036;-93
2023/01/08 02:11:38;;;;;;;16.55;7.93;;;;;;;0.63;71.57;99923.22;4867073;29;20048;-93
2023/01/08 02:14:12;;;;;;;16.90;7.93;;;;;;;0.49;71.89;99911.69;4881748;29;20036;-93
2023/01/08 02:16:54;;;;;;;23.20;16.45;;;;;;;0.48;72.29;99931.22;4866104;29;20412;-93
2023/01/08 02:19:44;;;;;;;15.73;8.90;;;;;;;0.59;72.30;99950.09;4851108;29;20040;-93
2023/01/08 02:22:14;;;;;;;14.90;7.43;;;;;;;0.64;72.13;99932.81;4851960;29;20081;-92
2023/01/08 02:24:59;;;;;;;19.13;7.93;;;;;;;0.49;72.40;99928.38;4880634;29;20044;-93
2023/01/08 02:27:26;;;;;;;14.95;7.45;;;;;;;0.53;72.29;99920.88;4870609;29;20045;-93
2023/01/08 02:29:52;;;;;;;15.43;7.32;;;;;;;0.51;72.69;99939.63;4868239;29;20092;-93
2023/01/08 02:32:18;;;;;;;15.23;7.68;;;;;;;0.48;72.16;99926.75;4867932;29;20488;-94
2023/01/08 02:34:43;;;;;;;14.05;7.65;;;;;;;0.36;72.96;99912.38;4885006;29;20119;-93
2023/01/08 02:37:09;;;;;;;13.05;7.40;;;;;;;0.27;72.75;99908.19;4886185;29;20036;-92
2023/01/08 02:39:50;;;;;;;21.30;7.90;;;;;;;0.38;72.85;99923.59;4865730;29;20442;-94
2023/01/08 02:42:54;;;;;;;18.35;7.65;;;;;;;0.50;72.97;99935.34;4876752;29;20040;-93
2023/01/08 02:45:28;;;;;;;13.55;7.63;;;;;;;0.37;72.92;99935.19;4898488;29;20043;-93
2023/01/08 02:48:01;;;;;;;13.32;7.35;;;;;;;0.20;73.10;99911.59;4884139;29;20029;-93
2023/01/08 02:50:45;;;;;;;18.40;8.90;;;;;;;0.32;73.41;99937.59;4867876;29;20036;-93
2023/01/08 02:53:14;;;;;;;12.38;7.35;;;;;;;0.41;72.75;99936.47;4890522;29;20048;-93
2023/01/08 02:55:41;;;;;;;15.80;8.00;;;;;;;0.33;72.73;99937.41;4883741;29;20516;-93
2023/01/08 02:58:06;;;;;;;13.75;6.97;;;;;;;0.12;72.76;99908.25;4867399;29;20029;-93
2023/01/08 03:00:32;;;;;;;15.50;8.57;;;;;;;0.13;73.39;99912.53;4868893;29;20039;-93
2023/01/08 03:03:24;;;;;;;15.10;8.05;;;;;;;0.07;73.14;99914.09;4864567;29;20056;-93
2023/01/08 03:05:51;;;;;;;12.18;7.28;;;;;;;0.04;73.42;99929.53;4889918;29;20063;-92
2023/01/08 03:08:17;;;;;;;15.35;8.38;;;;;;;0.06;73.42;99944.22;4877221;29;20547;-94
2023/01/08 03:10:44;;;;;;;12.00;7.78;;;;;;;0.04;73.24;99926.88;4869157;29;20084;-93
2023/01/08 03:13:31;;;;;;;18.02;7.55;;;;;;;0.16;73.34;99942.09;4875432;29;20024;-92
2023/01/08 03:15:58;;;;;;;15.88;8.68;;;;;;;0.06;73.06;99919.56;4862835;29;20047;-92
2023/01/08 03:18:27;;;;;;;16.77;7.53;;;;;;;0.20;72.67;99946.00;4864004;29;20573;-93
2023/01/08 03:20:53;;;;;;;14.35;7.90;;;;;;;-0.05;72.80;99902.34;4868766;29;20546;-93
2023/01/08 03:23:18;;;;;;;18.38;7.93;;;;;;;-0.10;73.27;99921.44;4883165;29;20063;-93
2023/01/08 03:25:45;;;;;;;17.80;8.38;;;;;;;-0.22;73.52;99901.75;4894192;29;20057;-93
2023/01/08 03:28:29;;;;;;;17.35;8.02;;;;;;;-0.17;73.33;99919.72;4876167;29;20025;-93
2023/01/08 03:30:54;;;;;;;16.85;8.82;;;;;;;-0.04;73.42;99930.47;4874689;29;20031;-93
2023/01/08 03:33:20;;;;;;;22.08;8.95;;;;;;;-0.04;73.38;99930.47;4869264;29;20415;-93
2023/01/08 03:35:47;;;;;;;15.23;8.43;;;;;;;-0.18;73.36;99921.56;4868578;29;20029;-93
2023/01/08 03:38:21;;;;;;;16.90;7.75;;;;;;;-0.28;73.39;99915.72;4881943;29;20112;-93
2023/01/08 03:40:49;;;;;;;15.82;8.18;;;;;;;-0.08;73.34;99935.31;4864359;29;20115;-92
2023/01/08 03:43:14;;;;;;;15.82;8.48;;;;;;;-0.30;73.33;99913.25;4883635;29;20109;-92
2023/01/08 03:45:47;;;;;;;50.97;23.10;;;;;;;-0.18;72.93;99913.63;4867619;29;20040;-93
2023/01/08 03:48:13;;;;;;;19.13;9.40;;;;;;;-0.24;73.08;99917.81;4872465;29;20025;-93
2023/01/08 03:50:38;;;;;;;19.67;9.02;;;;;;;-0.43;73.06;99900.69;4867276;29;20033;-93
2023/01/08 03:53:04;;;;;;;15.55;8.82;;;;;;;-0.41;73.63;99914.53;4879172;29;20568;-93
2023/01/08 03:55:29;;;;;;;14.18;8.65;;;;;;;-0.38;73.58;99901.97;4850062;29;20081;-93
2023/01/08 03:57:55;;;;;;;15.15;8.63;;;;;;;-0.29;73.14;99906.97;4849665;29;20069;-93
2023/01/08 04:00:21;;;;;;;19.77;9.80;;;;;;;-0.16;72.72;99934.59;4849813;29;20089;-92
2023/01/08 04:02:46;;;;;;;14.65;8.50;;;;;;;-0.21;72.69;99925.41;4864508;29;20032;-92
2023/01/08 04:05:11;;;;;;;15.32;8.70;;;;;;;-0.16;73.15;99950.50;4880102;29;20062;-93
2023/01/08 04:07:37;;;;;;;18.92;9.35;;;;;;;-0.26;73.21;99932.25;4880549;29;20477;-93
2023/01/08 04:10:03;;;;;;;16.30;9.63;;;;;;;-0.37;73.18;99917.66;4866321;29;20060;-93
2023/01/08 04:12:28;;;;;;;19.67;9.93;;;;;;;-0.46;72.92;99916.09;4852113;29;20032;-93
2023/01/08 04:14:54;;;;;;;17.35;9.25;;;;;;;-0.46;73.53;99924.88;4853346;29;20032;-93
2023/01/08 04:17:19;;;;;;;16.75;8.52;;;;;;;-0.29;73.04;99941.38;4893844;29;20119;-92
2023/01/08 04:19:45;;;;;;;17.13;8.27;;;;;;;-0.52;73.09;99920.31;4886120;29;20491;-93
2023/01/08 04:22:10;;;;;;;20.40;9.00;;;;;;;-0.54;73.21;99929.41;4886045;29;20452;-93
2023/01/08 04:24:36;;;;;;;13.85;7.57;;;;;;;-0.43;73.04;99937.72;4870703;29;20063;-92
2023/01/08 04:27:01;;;;;;;19.95;9.13;;;;;;;-0.45;72.98;99950.31;4877196;29;20024;-93
2023/01/08 04:29:27;;;;;;;14.05;8.52;;;;;;;-0.60;73.02;99933.63;4897337;29;20099;-93
2023/01/08 04:31:52;;;;;;;18.98;8.43;;;;;;;-0.48;73.18;99955.13;4902574;29;20032;-93
2023/01/08 04:34:18;;;;;;;10.48;6.95;;;;;;;-0.49;73.09;99956.97;4889211;29;20024;-93
2023/01/08 04:36:43;;;;;;;13.40;8.27;;;;;;;-0.63;73.05;99942.72;4889738;29;20055;-93
2023/01/08 04:39:09;;;;;;;15.70;8.32;;;;;;;-0.70;73.53;99939.16;4887455;29;20051;-92
2023/01/08 04:41:35;;;;;;;19.70;8.70;;;;;;;-0.70;73.42;99948.94;4870399;29;20021;-93
2023/01/08 04:44:00;;;;;;;16.25;8.20;;;;;;;-0.80;73.63;99935.16;4881405;29;20047;-92
2023/01/08 04:46:26;;;;;;;17.98;8.98;;;;;;;-0.71;73.46;99950.72;4889632;29;20033;-93
2023/01/08 04:48:51;;;;;;;16.13;7.93;;;;;;;-0.60;73.97;99968.00;4871511;29;20040;-93
2023/01/08 04:51:17;;;;;;;20.13;9.63;;;;;;;-0.75;74.11;99946.81;4871057;29;20039;-92
2023/01/08 04:53:44;;;;;;;18.75;9.00;;;;;;;-0.65;73.95;99952.66;4877001;29;20410;-92
2023/01/08 04:56:10;;;;;;;20.00;10.32;;;;;;;-0.58;74.35;99962.50;4881702;29;20024;-93
2023/01/08 04:58:35;;;;;;;19.48;9.75;;;;;;;-0.54;73.84;99964.63;4881274;29;20115;-92
2023/01/08 05:01:07;;;;;;;18.40;9.95;;;;;;;-0.64;74.10;99943.72;4874256;29;20479;-93
2023/01/08 05:03:33;;;;;;;22.52;10.18;;;;;;;-0.49;73.57;99964.09;4871259;29;20088;-92
2023/01/08 05:05:59;;;;;;;20.50;9.93;;;;;;;-0.57;73.17;99954.41;4887716;29;20452;-93
2023/01/08 05:08:25;;;;;;;16.15;8.65;;;;;;;-0.59;73.52;99945.81;4871778;29;20044;-92
2023/01/08 05:10:50;;;;;;;25.80;9.85;;;;;;;-0.52;73.07;99961.78;4868323;29;20029;-92
2023/01/08 05:13:16;;;;;;;17.95;9.40;;;;;;;-0.51;73.35;99964.25;4869610;29;20036;-92
2023/01/08 05:15:41;;;;;;;21.67;10.02;;;;;;;-0.52;73.06;99967.91;4867847;29;20032;-93
2023/01/08 05:18:07;;;;;;;21.30;9.50;;;;;;;-0.52;73.22;99972.38;4869851;29;20021;-93
2023/01/08 05:20:32;;;;;;;16.50;8.85;;;;;;;-0.68;73.22;99960.97;4884259;29;20025;-93
2023/01/08 05:22:58;;;;;;;15.25;8.73;;;;;;;-0.61;73.02;99969.00;4879441;29;20032;-93
2023/01/08 05:25:23;;;;;;;18.05;7.93;;;;;;;-0.66;73.11;99969.53;4869925;29;20093;-92
2023/01/08 05:27:49;;;;;;;16.80;8.32;;;;;;;-0.76;73.34;99957.59;4885984;29;20550;-93
2023/01/08 05:30:14;;;;;;;16.70;8.60;;;;;;;-0.56;73.38;99971.94;4888856;29;20038;-92
2023/01/08 05:32:40;;;;;;;17.90;8.23;;;;;;;-0.67;73.19;99962.59;4889791;29;20033;-92
2023/01/08 05:35:06;;;;;;;20.30;9.95;;;;;;;-0.64;73.05;99966.72;4872561;29;20028;-92
2023/01/08 05:37:35;;;;;;;19.13;8.45;;;;;;;-0.67;72.64;99962.59;4870179;29;20120;-92
2023/01/08 05:40:00;;;;;;;20.75;9.35;;;;;;;-0.73;73.22;99950.09;4883269;29;20126;-92
2023/01/08 05:42:26;;;;;;;18.55;7.70;;;;;;;-0.62;72.64;99975.28;4888579;29;20062;-91
2023/01/08 05:44:51;;;;;;;13.85;7.32;;;;;;;-0.55;72.52;99978.03;4887531;29;20033;-92
2023/01/08 05:47:17;;;;;;;19.00;7.28;;;;;;;-0.60;72.56;99978.56;4887417;29;20058;-93
2023/01/08 05:49:42;;;;;;;10.80;6.93;;;;;;;-0.78;72.24;99959.59;4887999;29;20035;-92
2023/01/08 05:52:08;;;;;;;21.08;8.40;;;;;;;-0.76;72.84;99978.72;4888629;29;20452;-92
2023/01/08 05:54:33;;;;;;;13.15;7.70;;;;;;;-0.82;72.92;99956.47;4885234;29;20020;-92
2023/01/08 05:56:59;;;;;;;15.38;7.75;;;;;;;-0.77;72.78;99977.06;4869584;29;20116;-92
2023/01/08 05:59:24;;;;;;;15.82;8.20;;;;;;;-0.66;72.84;99982.75;4875664;29;20539;-93
2023/01/08 06:01:50;;;;;;;14.48;8.32;;;;;;;-0.80;72.32;99954.47;4867218;29;20028;-90
2023/01/08 06:04:15;;;;;;;12.32;8.45;;;;;;;-0.77;72.97;99964.66;4875518;29;20029;-93
2023/01/08 06:06:41;;;;;;;20.23;9.18;;;;;;;-0.62;72.28;99993.81;4869846;29;20036;-92
2023/01/08 06:09:06;;;;;;;17.13;8.95;;;;;;;-0.67;72.24;99982.94;4878148;29;20052;-91
2023/01/08 06:11:32;;;;;;;66.25;42.58;;;;;;;-0.85;72.28;99954.16;4886337;29;20036;-93
2023/01/08 06:13:58;;;;;;;23.83;11.15;;;;;;;-0.70;72.44;99978.81;4875397;29;20035;-92
2023/01/08 06:16:24;;;;;;;21.95;10.80;;;;;;;-0.59;72.29;99989.97;4868743;29;20025;-92
2023/01/08 06:18:49;;;;;;;22.15;11.07;;;;;;;-0.68;72.09;99976.00;4897289;29;20028;-92
2023/01/08 06:21:15;;;;;;;19.13;9.90;;;;;;;-0.64;72.51;99972.00;4888265;29;20027;-92
2023/01/08 06:23:43;;;;;;;21.95;10.27;;;;;;;-0.72;72.30;99957.03;4887248;29;20020;-93
2023/01/08 06:26:08;;;;;;;16.42;9.75;;;;;;;-1.05;73.08;99967.09;4887852;29;20405;-91
2023/01/08 06:28:34;;;;;;;21.17;10.20;;;;;;;-0.88;73.62;99967.75;4877332;29;20097;-92
2023/01/08 06:31:00;;;;;;;20.63;12.15;;;;;;;-0.67;73.35;99998.78;4877514;29;20035;-91
2023/01/08 06:33:26;;;;;;;19.45;10.20;;;;;;;-0.83;73.67;99976.81;4867474;29;20051;-92
2023/01/08 06:35:51;;;;;;;16.50;11.07;;;;;;;-0.75;73.55;99983.81;4899499;29;20051;-92
2023/01/08 06:38:19;;;;;;;18.02;9.95;;;;;;;-0.83;73.22;99970.69;4887679;29;20032;-92
2023/01/08 06:40:46;;;;;;;18.63;10.02;;;;;;;-0.64;73.10;99995.81;4887376;29;20028;-93
2023/01/08 06:43:12;;;;;;;21.15;9.82;;;;;;;-0.57;73.20;99994.06;4898158;29;20045;-94
2023/01/08 06:45:38;;;;;;;17.48;9.55;;;;;;;-0.51;72.80;99988.06;4869358;29;20032;-93
2023/01/08 06:48:04;;;;;;;17.67;10.55;;;;;;;-0.65;72.36;99973.81;4869388;29;20032;-93
2023/01/08 06:50:30;;;;;;;24.08;11.00;;;;;;;-0.42;72.63;100004.66;4906343;29;20043;-94
2023/01/08 06:52:56;;;;;;;20.83;10.68;;;;;;;-0.38;72.75;99999.84;4898503;29;20419;-93
2023/01/08 06:55:22;;;;;;;19.02;10.27;;;;;;;-0.37;71.89;99991.72;4895698;29;20016;-93
2023/01/08 06:57:47;;;;;;;16.80;9.80;;;;;;;-0.28;72.13;100005.69;4890575;29;20521;-93
2023/01/08 07:00:16;;;;;;;17.48;9.95;;;;;;;-0.22;71.61;99992.53;4884462;29;20035;-93
2023/01/08 07:02:41;;;;;;;23.88;9.93;;;;;;;-0.21;72.37;99996.84;4867134;29;20121;-93
2023/01/08 07:05:07;;;;;;;19.65;10.65;;;;;;;-0.24;71.83;99991.09;4868007;29;20021;-93
2023/01/08 07:07:32;;;;;;;20.55;10.82;;;;;;;-0.14;71.97;99988.19;4883545;29;20032;-93
2023/01/08 07:09:58;;;;;;;19.23;10.10;;;;;;;-0.13;71.80;99987.97;4898736;29;20032;-93
2023/01/08 07:12:24;;;;;;;16.23;9.68;;;;;;;-0.01;72.59;100009.50;4907912;29;20095;-91
2023/01/08 07:14:49;;;;;;;20.75;10.07;;;;;;;-0.06;72.15;99988.09;4869420;29;20029;-90
2023/01/08 07:17:14;;;;;;;19.45;9.57;;;;;;;-0.04;72.32;99978.94;4891562;29;20024;-92
2023/01/08 07:19:42;;;;;;;19.38;9.70;;;;;;;0.29;71.92;100001.53;4876839;29;20149;-92
2023/01/08 07:22:08;;;;;;;22.77;10.27;;;;;;;0.40;71.38;100012.47;4874927;29;20028;-93
2023/01/08 07:24:34;;;;;;;18.58;9.90;;;;;;;0.24;71.50;99982.72;4896780;29;20031;-93
2023/01/08 07:26:59;;;;;;;20.90;9.45;;;;;;;0.43;71.67;99989.25;4873859;29;20115;-93
2023/01/08 07:29:26;;;;;;;25.77;11.32;;;;;;;0.53;71.69;99993.25;4882537;29;20029;-92
2023/01/08 07:31:51;;;;;;;15.82;9.05;;;;;;;0.54;71.30;99976.34;4896855;29;20020;-93
2023/01/08 07:34:20;;;;;;;24.05;9.40;;;;;;;0.85;71.00;100006.19;4877309;29;20040;-94
2023/01/08 07:36:45;;;;;;;23.63;9.52;;;;;;;0.89;70.62;99975.66;4869954;29;20028;-93
2023/01/08 07:39:11;;;;;;;22.30;10.95;;;;;;;1.23;69.86;100006.75;4894918;29;20039;-93
2023/01/08 07:41:36;;;;;;;21.50;11.18;;;;;;;1.15;69.50;99980.38;4913093;29;20036;-93
2023/01/08 07:44:04;;;;;;;22.98;11.52;;;;;;;1.37;68.67;99999.69;4865001;29;20037;-93
2023/01/08 07:46:29;;;;;;;24.60;11.15;;;;;;;1.31;68.48;99977.44;4889075;29;20025;-92
2023/01/08 07:48:56;;;;;;;20.45;11.15;;;;;;;1.54;68.87;99992.28;4878315;29;20035;-92
2023/01/08 07:51:21;;;;;;;19.58;10.57;;;;;;;1.49;68.29;99973.47;4880233;29;20139;-93
2023/01/08 07:53:47;;;;;;;20.17;10.60;;;;;;;1.76;67.66;99985.06;4884752;29;20103;-93
2023/01/08 07:56:12;;;;;;;21.52;11.30;;;;;;;1.94;67.18;99985.38;4871680;29;20496;-93
2023/01/08 07:58:38;;;;;;;21.92;11.80;;;;;;;2.01;67.32;99975.59;4871456;29;20084;-93
2023/01/08 08:01:06;;;;;;;22.83;12.27;;;;;;;1.90;67.60;99957.56;4890434;29;20510;-93
2023/01/08 08:03:31;;;;;;;23.92;11.88;;;;;;;2.06;68.82;99995.44;4870613;29;20025;-92
2023/01/08 08:05:59;;;;;;;19.95;11.45;;;;;;;1.86;68.98;99963.47;4871471;29;20025;-92
2023/01/08 08:08:24;;;;;;;22.38;11.07;;;;;;;2.10;68.56;99983.41;4870740;29;20047;-92
2023/01/08 08:10:50;;;;;;;19.55;11.45;;;;;;;2.07;68.00;99970.50;4877034;29;20029;-93
2023/01/08 08:13:15;;;;;;;23.27;10.77;;;;;;;2.18;67.53;99976.09;4898950;29;20029;-93
2023/01/08 08:15:41;;;;;;;19.55;10.20;;;;;;;2.35;67.89;99997.00;4882861;29;20549;-92
2023/01/08 08:18:06;;;;;;;18.42;10.60;;;;;;;2.44;67.63;99987.81;4882931;29;20021;-93
2023/01/08 08:20:32;;;;;;;17.98;10.48;;;;;;;2.46;67.65;99977.00;4889169;29;20032;-93
2023/01/08 08:23:08;;;;;;;18.65;10.40;;;;;;;2.76;67.04;99988.06;4892222;29;20048;-93
2023/01/08 08:25:33;;;;;;;21.42;11.23;;;;;;;2.99;66.08;99988.53;4897338;29;20085;-92
2023/01/08 08:27:59;;;;;;;18.38;10.98;;;;;;;2.94;66.25;99961.72;4881570;29;20535;-92
2023/01/08 08:30:25;;;;;;;23.23;12.40;;;;;;;3.05;66.24;99973.59;4874137;29;20036;-93
2023/01/08 08:32:52;;;;;;;19.08;11.02;;;;;;;3.11;66.55;99979.94;4888824;29;20554;-92
2023/01/08 08:35:17;;;;;;;20.30;11.77;;;;;;;3.15;65.99;99971.34;4890402;29;20028;-93
2023/01/08 08:37:42;;;;;;;22.55;12.75;;;;;;;3.31;65.49;99977.28;4890745;29;20031;-93
2023/01/08 08:40:09;;;;;;;21.27;12.57;;;;;;;3.36;65.77;99964.16;4889444;29;20032;-93
2023/01/08 08:42:34;;;;;;;23.48;12.27;;;;;;;3.47;65.36;99965.41;4887110;29;20044;-93
2023/01/08 08:44:59;;;;;;;23.42;12.98;;;;;;;3.68;65.34;99970.47;4876577;29;20024;-93
2023/01/08 08:47:25;;;;;;;27.00;13.73;;;;;;;3.92;64.38;99987.63;4900136;29;20065;-93
2023/01/08 08:49:51;;;;;;;24.92;12.50;;;;;;;4.04;63.78;99982.44;4897740;29;20027;-93
2023/01/08 08:52:16;;;;;;;24.88;13.00;;;;;;;4.09;63.94;99971.16;4879513;29;20074;-92
2023/01/08 08:54:42;;;;;;;23.42;13.60;;;;;;;4.12;63.52;99955.56;4894131;29;20036;-93
2023/01/08 08:57:08;;;;;;;21.80;12.73;;;;;;;4.23;63.36;99952.25;4871235;29;20028;-93
2023/01/08 08:59:34;;;;;;;21.02;11.65;;;;;;;4.30;63.39;99946.88;4870389;29;20031;-93
2023/01/08 09:01:59;;;;;;;24.10;11.98;;;;;;;4.57;63.25;99965.41;4870857;29;20036;-93
2023/01/08 09:04:25;;;;;;;18.45;11.10;;;;;;;4.49;63.28;99952.31;4869638;29;20112;-93
2023/01/08 09:06:51;;;;;;;20.88;12.93;;;;;;;4.64;63.50;99945.63;4870038;29;20034;-92
2023/01/08 09:09:17;;;;;;;21.58;12.38;;;;;;;4.84;62.97;99956.19;4869831;29;20031;-93
2023/01/08 09:11:42;;;;;;;20.23;12.40;;;;;;;4.85;62.78;99932.97;4870535;29;20033;-93
2023/01/08 09:14:08;;;;;;;23.02;11.80;;;;;;;4.99;63.32;99929.16;4869123;29;20029;-93
2023/01/08 09:16:37;;;;;;;19.27;12.40;;;;;;;5.12;62.85;99933.56;4869986;29;20028;-93
2023/01/08 09:19:03;;;;;;;23.00;14.40;;;;;;;5.19;61.96;99926.34;4868924;29;20407;-93
2023/01/08 09:21:28;;;;;;;23.02;13.10;;;;;;;5.27;62.01;99919.88;4903608;29;20032;-93
2023/01/08 09:23:54;;;;;;;22.30;11.90;;;;;;;5.40;61.96;99908.28;4888505;29;20131;-92
2023/01/08 09:26:19;;;;;;;21.05;12.25;;;;;;;5.59;61.72;99914.44;4887299;29;20032;-92
2023/01/08 09:28:45;;;;;;;20.38;11.43;;;;;;;5.71;61.07;99917.19;4869337;29;20123;-93
2023/01/08 09:31:11;;;;;;;16.83;10.88;;;;;;;5.73;60.66;99886.53;4869638;29;20024;-94
2023/01/08 09:33:36;;;;;;;18.30;11.82;;;;;;;5.86;60.64;99902.41;4894196;29;20028;-92
2023/01/08 09:36:02;;;;;;;21.75;12.48;;;;;;;5.95;60.33;99902.94;4880031;29;20032;-93
2023/01/08 09:38:27;;;;;;;23.63;12.30;;;;;;;6.07;60.44;99903.00;4887426;29;20019;-92
2023/01/08 09:40:58;;;;;;;22.55;12.38;;;;;;;6.05;59.98;99873.81;4887533;29;20020;-92
2023/01/08 09:43:25;;;;;;;22.17;12.65;;;;;;;6.25;59.55;99878.09;4887490;29;20055;-93
2023/01/08 09:45:52;;;;;;;16.15;10.73;;;;;;;6.33;59.50;99877.78;4867451;29;20126;-93
2023/01/08 09:48:18;;;;;;;20.02;11.90;;;;;;;6.33;59.39;99861.72;4868747;29;20037;-93
2023/01/08 09:50:43;;;;;;;20.13;11.48;;;;;;;6.49;59.85;99873.59;4869315;29;20028;-93
2023/01/08 09:53:14;;;;;;;21.65;12.13;;;;;;;6.73;59.07;99882.50;4894886;29;20038;-93
2023/01/08 09:55:40;;;;;;;19.67;11.43;;;;;;;6.63;59.07;99853.63;4886257;29;20487;-93
2023/01/08 09:58:21;;;;;;;19.98;11.18;;;;;;;6.81;58.23;99857.28;4885543;29;20036;-93
2023/01/08 10:00:46;;;;;;;17.17;11.63;;;;;;;6.86;58.08;99846.69;4884720;29;20068;-93
2023/01/08 10:03:12;;;;;;;20.23;11.60;;;;;;;7.01;58.15;99855.06;4887387;29;20035;-93
2023/01/08 10:05:40;;;;;;;23.70;12.45;;;;;;;7.09;57.87;99851.22;4903499;29;20526;-93
2023/01/08 10:08:10;;;;;;;17.27;11.38;;;;;;;7.17;57.90;99842.03;4887435;29;20032;-92
2023/01/08 10:10:35;;;;;;;21.85;13.35;;;;;;;7.20;57.33;99825.47;4896749;29;20079;-92
2023/01/08 10:13:01;;;;;;;25.10;13.57;;;;;;;7.29;57.39;99834.78;4892022;29;20035;-93
2023/01/08 10:15:26;;;;;;;20.23;12.95;;;;;;;7.26;57.41;99817.34;4871383;29;20029;-93
2023/01/08 10:18:00;;;;;;;23.40;12.90;;;;;;;7.37;57.25;99821.03;4868966;29;20020;-93
2023/01/08 10:20:25;;;;;;;23.02;12.40;;;;;;;7.53;57.15;99819.47;4881496;29;20070;-93
2023/01/08 10:23:00;;;;;;;26.08;13.75;;;;;;;7.64;56.77;99828.53;4869030;29;20056;-92
2023/01/08 10:25:26;;;;;;;21.42;13.52;;;;;;;7.66;56.73;99803.13;4885072;29;20053;-92
2023/01/08 10:28:02;;;;;;;23.08;13.85;;;;;;;7.89;56.67;99817.50;4885177;29;20491;-92
2023/01/08 10:30:38;;;;;;;24.30;13.10;;;;;;;7.86;56.90;99799.19;4884345;29;20044;-93
2023/01/08 10:33:06;;;;;;;20.25;12.90;;;;;;;7.92;56.65;99808.97;4868600;29;20029;-93
2023/01/08 10:35:39;;;;;;;17.35;11.45;;;;;;;8.09;55.97;99811.66;4858584;29;20083;-93
2023/01/08 10:38:04;;;;;;;19.77;11.50;;;;;;;8.09;56.26;99795.56;4871253;29;20036;-93
2023/01/08 10:40:35;;;;;;;17.63;11.07;;;;;;;8.34;56.02;99819.34;4868896;29;20423;-93
2023/01/08 10:43:10;;;;;;;19.67;11.25;;;;;;;8.35;56.26;99798.72;4883951;29;20400;-93
2023/01/08 10:45:35;;;;;;;19.83;11.35;;;;;;;8.44;56.34;99800.75;4867767;29;20025;-95
2023/01/08 10:48:04;;;;;;;17.83;10.73;;;;;;;8.39;55.86;99779.19;4897068;29;20084;-95
2023/01/08 10:50:31;;;;;;;14.55;9.57;;;;;;;8.56;54.93;99789.97;4883908;29;20040;-95
2023/01/08 10:53:01;;;;;;;10.65;6.70;;;;;;;8.64;55.14;99786.84;4886743;29;20028;-96
2023/01/08 10:55:34;;;;;;;11.10;6.35;;;;;;;8.73;54.67;99773.03;4871319;29;20053;-95
2023/01/08 10:58:02;;;;;;;11.25;6.90;;;;;;;8.77;54.03;99752.69;4870075;29;20088;-95
2023/01/08 11:00:32;;;;;;;9.82;6.47;;;;;;;8.99;53.85;99772.31;4884584;29;20036;-96
2023/01/08 11:02:59;;;;;;;7.78;5.30;;;;;;;9.09;53.61;99777.84;4869304;29;20033;-93
2023/01/08 11:05:38;;;;;;;11.23;7.22;;;;;;;9.22;53.90;99765.91;4884525;29;20077;-92
2023/01/08 11:08:11;;;;;;;12.63;6.85;;;;;;;9.39;53.23;99765.84;4884462;29;20108;-93
2023/01/08 11:10:39;;;;;;;14.57;6.40;;;;;;;9.45;52.53;99751.41;4883884;29;20510;-93
2023/01/08 11:13:13;;;;;;;8.88;6.38;;;;;;;9.54;52.38;99756.31;4868269;29;20055;-94
2023/01/08 11:15:42;;;;;;;11.18;5.97;;;;;;;9.66;52.33;99771.25;4883036;29;20029;-93
2023/01/08 11:18:24;;;;;;;10.07;5.38;;;;;;;9.79;51.33;99764.66;4899436;29;20093;-92
2023/01/08 11:20:51;;;;;;;10.65;5.88;;;;;;;9.82;50.96;99756.09;4858904;29;20089;-93
2023/01/08 11:23:21;;;;;;;11.27;5.13;;;;;;;9.90;50.69;99761.00;4868345;29;20052;-92
2023/01/08 11:26:08;;;;;;;10.35;5.13;;;;;;;10.05;49.95;99765.72;4891631;29;20028;-93
2023/01/08 11:28:59;;;;;;;7.10;4.68;;;;;;;10.13;49.98;99775.22;4882942;29;20127;-92